sensor_id;sensor_type;location;lat;lon;timestamp;P1;durP1;ratioP1;P2;durP2;ratioP2
19163;SDS011;9714;51.208;4.242;2023-06-10T00:02:35;16.85;;;6.28;;
19163;SDS011;9714;51.208;4.242;2023-06-10T00:05:08;10.40;;;5.90;;
19163;SDS011;9714;51.208;4.242;2023-06-10T00:07:42;12.43;;;5.50;;
19163;SDS011;9714;51.208;4.242;2023-06-10T00:13:11;14.57;;;6.07;;
19163;SDS011;9714;51.208;4.242;2023-06-10T00:15:46;11.27;;;6.65;;
19163;SDS011;9714;51.208;4.242;2023-06-10T00:18:20;13.05;;;6.53;;
19163;SDS011;9714;51.208;4.242;2023-06-10T00:20:50;14.23;;;6.40;;
19163;SDS011;9714;51.208;4.242;2023-06-10T00:23:23;11.77;;;5.60;;
19163;SDS011;9714;51.208;4.242;2023-06-10T00:25:53;16.73;;;6.47;;
19163;SDS011;9714;51.208;4.242;2023-06-10T00:31:26;14.38;;;6.57;;
19163;SDS011;9714;51.208;4.242;2023-06-10T00:34:09;12.85;;;6.28;;
19163;SDS011;9714;51.208;4.242;2023-06-10T00:36:37;11.98;;;6.57;;
19163;SDS011;9714;51.208;4.242;2023-06-10T00:39:20;18.30;;;7.10;;
19163;SDS011;9714;51.208;4.242;2023-06-10T00:41:51;14.60;;;6.82;;
19163;SDS011;9714;51.208;4.242;2023-06-10T00:44:20;13.25;;;6.40;;
19163;SDS011;9714;51.208;4.242;2023-06-10T00:46:49;20.15;;;6.93;;
19163;SDS011;9714;51.208;4.242;2023-06-10T00:49:24;13.50;;;6.25;;
19163;SDS011;9714;51.208;4.242;2023-06-10T00:51:53;15.68;;;6.90;;
19163;SDS011;9714;51.208;4.242;2023-06-10T00:54:22;14.52;;;6.50;;
19163;SDS011;9714;51.208;4.242;2023-06-10T00:56:51;15.95;;;6.30;;
19163;SDS011;9714;51.208;4.242;2023-06-10T00:59:23;17.50;;;6.60;;
19163;SDS011;9714;51.208;4.242;2023-06-10T01:01:53;11.75;;;6.30;;
19163;SDS011;9714;51.208;4.242;2023-06-10T01:07:31;12.98;;;6.75;;
19163;SDS011;9714;51.208;4.242;2023-06-10T01:10:09;13.38;;;6.55;;
19163;SDS011;9714;51.208;4.242;2023-06-10T01:16:02;12.00;;;6.20;;
19163;SDS011;9714;51.208;4.242;2023-06-10T01:21:40;14.25;;;7.05;;
19163;SDS011;9714;51.208;4.242;2023-06-10T01:24:29;15.20;;;6.72;;
19163;SDS011;9714;51.208;4.242;2023-06-10T01:27:00;13.27;;;6.75;;
19163;SDS011;9714;51.208;4.242;2023-06-10T01:29:33;17.75;;;7.07;;
19163;SDS011;9714;51.208;4.242;2023-06-10T01:32:12;14.82;;;6.85;;
19163;SDS011;9714;51.208;4.242;2023-06-10T01:35:01;17.52;;;7.35;;
19163;SDS011;9714;51.208;4.242;2023-06-10T01:37:31;17.30;;;7.40;;
19163;SDS011;9714;51.208;4.242;2023-06-10T01:40:02;14.27;;;6.50;;
19163;SDS011;9714;51.208;4.242;2023-06-10T01:42:35;13.93;;;6.32;;
19163;SDS011;9714;51.208;4.242;2023-06-10T01:45:09;15.27;;;7.03;;
19163;SDS011;9714;51.208;4.242;2023-06-10T01:47:37;14.30;;;7.00;;
19163;SDS011;9714;51.208;4.242;2023-06-10T01:58:16;12.13;;;6.65;;
19163;SDS011;9714;51.208;4.242;2023-06-10T02:00:44;12.93;;;6.95;;
19163;SDS011;9714;51.208;4.242;2023-06-10T02:03:11;10.90;;;5.90;;
19163;SDS011;9714;51.208;4.242;2023-06-10T02:05:39;12.98;;;7.03;;
19163;SDS011;9714;51.208;4.242;2023-06-10T02:08:07;12.65;;;6.72;;
19163;SDS011;9714;51.208;4.242;2023-06-10T02:10:36;13.23;;;7.22;;
19163;SDS011;9714;51.208;4.242;2023-06-10T02:13:06;13.32;;;7.45;;
19163;SDS011;9714;51.208;4.242;2023-06-10T02:15:37;12.85;;;6.82;;
19163;SDS011;9714;51.208;4.242;2023-06-10T02:18:04;12.00;;;6.93;;
19163;SDS011;9714;51.208;4.242;2023-06-10T02:20:32;15.18;;;7.85;;
19163;SDS011;9714;51.208;4.242;2023-06-10T02:22:59;14.13;;;7.28;;
19163;SDS011;9714;51.208;4.242;2023-06-10T02:25:26;12.85;;;6.85;;
19163;SDS011;9714;51.208;4.242;2023-06-10T02:27:54;16.15;;;7.03;;
19163;SDS011;9714;51.208;4.242;2023-06-10T02:30:21;14.93;;;7.10;;
19163;SDS011;9714;51.208;4.242;2023-06-10T02:32:48;17.23;;;6.78;;
19163;SDS011;9714;51.208;4.242;2023-06-10T02:35:15;14.70;;;7.30;;
19163;SDS011;9714;51.208;4.242;2023-06-10T02:37:42;15.10;;;8.25;;
19163;SDS011;9714;51.208;4.242;2023-06-10T02:40:10;18.05;;;7.75;;
19163;SDS011;9714;51.208;4.242;2023-06-10T02:42:37;16.38;;;7.38;;
19163;SDS011;9714;51.208;4.242;2023-06-10T02:45:06;13.93;;;6.90;;
19163;SDS011;9714;51.208;4.242;2023-06-10T02:47:34;14.23;;;7.57;;
19163;SDS011;9714;51.208;4.242;2023-06-10T02:50:03;13.45;;;7.18;;
19163;SDS011;9714;51.208;4.242;2023-06-10T02:52:31;16.15;;;7.60;;
19163;SDS011;9714;51.208;4.242;2023-06-10T02:55:00;12.75;;;7.07;;
19163;SDS011;9714;51.208;4.242;2023-06-10T02:57:27;15.63;;;7.55;;
19163;SDS011;9714;51.208;4.242;2023-06-10T02:59:54;16.25;;;7.22;;
19163;SDS011;9714;51.208;4.242;2023-06-10T03:02:23;14.30;;;7.55;;
19163;SDS011;9714;51.208;4.242;2023-06-10T03:04:53;18.63;;;7.93;;
19163;SDS011;9714;51.208;4.242;2023-06-10T03:07:20;13.75;;;7.78;;
19163;SDS011;9714;51.208;4.242;2023-06-10T03:09:48;15.60;;;7.65;;
19163;SDS011;9714;51.208;4.242;2023-06-10T03:12:15;22.45;;;8.00;;
19163;SDS011;9714;51.208;4.242;2023-06-10T03:14:42;13.43;;;7.63;;
19163;SDS011;9714;51.208;4.242;2023-06-10T03:17:09;16.55;;;7.63;;
19163;SDS011;9714;51.208;4.242;2023-06-10T03:19:37;14.40;;;7.72;;
19163;SDS011;9714;51.208;4.242;2023-06-10T03:22:08;15.60;;;8.43;;
19163;SDS011;9714;51.208;4.242;2023-06-10T03:24:36;17.05;;;7.93;;
19163;SDS011;9714;51.208;4.242;2023-06-10T03:27:05;14.48;;;7.30;;
19163;SDS011;9714;51.208;4.242;2023-06-10T03:29:33;13.43;;;7.55;;
19163;SDS011;9714;51.208;4.242;2023-06-10T03:32:00;18.90;;;7.63;;
19163;SDS011;9714;51.208;4.242;2023-06-10T03:34:27;15.00;;;7.28;;
19163;SDS011;9714;51.208;4.242;2023-06-10T03:36:56;16.02;;;8.07;;
19163;SDS011;9714;51.208;4.242;2023-06-10T03:39:23;19.38;;;7.72;;
19163;SDS011;9714;51.208;4.242;2023-06-10T03:41:50;14.23;;;7.88;;
19163;SDS011;9714;51.208;4.242;2023-06-10T03:44:17;15.40;;;8.00;;
19163;SDS011;9714;51.208;4.242;2023-06-10T03:46:44;19.60;;;8.18;;
19163;SDS011;9714;51.208;4.242;2023-06-10T03:49:13;14.90;;;7.93;;
19163;SDS011;9714;51.208;4.242;2023-06-10T03:51:42;16.88;;;8.48;;
19163;SDS011;9714;51.208;4.242;2023-06-10T03:54:11;14.13;;;8.27;;
19163;SDS011;9714;51.208;4.242;2023-06-10T03:56:38;19.95;;;8.57;;
19163;SDS011;9714;51.208;4.242;2023-06-10T03:59:05;14.65;;;7.82;;
19163;SDS011;9714;51.208;4.242;2023-06-10T04:01:32;15.02;;;8.02;;
19163;SDS011;9714;51.208;4.242;2023-06-10T04:04:00;17.23;;;8.18;;
19163;SDS011;9714;51.208;4.242;2023-06-10T04:06:27;15.60;;;8.30;;
19163;SDS011;9714;51.208;4.242;2023-06-10T04:08:55;17.38;;;7.90;;
19163;SDS011;9714;51.208;4.242;2023-06-10T04:11:24;16.48;;;8.98;;
19163;SDS011;9714;51.208;4.242;2023-06-10T04:13:51;13.15;;;7.80;;
19163;SDS011;9714;51.208;4.242;2023-06-10T04:16:18;14.90;;;8.15;;
19163;SDS011;9714;51.208;4.242;2023-06-10T04:18:46;13.55;;;7.90;;
19163;SDS011;9714;51.208;4.242;2023-06-10T04:21:13;14.88;;;8.63;;
19163;SDS011;9714;51.208;4.242;2023-06-10T04:23:40;17.77;;;8.65;;
19163;SDS011;9714;51.208;4.242;2023-06-10T04:26:07;17.50;;;7.90;;
19163;SDS011;9714;51.208;4.242;2023-06-10T04:28:37;16.90;;;8.55;;
19163;SDS011;9714;51.208;4.242;2023-06-10T04:31:04;21.45;;;9.57;;
19163;SDS011;9714;51.208;4.242;2023-06-10T04:33:31;14.32;;;8.68;;
19163;SDS011;9714;51.208;4.242;2023-06-10T04:35:58;15.52;;;8.20;;
19163;SDS011;9714;51.208;4.242;2023-06-10T04:38:25;14.70;;;7.43;;
19163;SDS011;9714;51.208;4.242;2023-06-10T04:40:53;13.68;;;8.90;;
19163;SDS011;9714;51.208;4.242;2023-06-10T04:43:21;13.85;;;8.27;;
19163;SDS011;9714;51.208;4.242;2023-06-10T04:45:49;14.40;;;8.15;;
19163;SDS011;9714;51.208;4.242;2023-06-10T04:48:16;16.08;;;7.40;;
19163;SDS011;9714;51.208;4.242;2023-06-10T04:50:43;22.02;;;8.55;;
19163;SDS011;9714;51.208;4.242;2023-06-10T04:53:10;20.67;;;8.38;;
19163;SDS011;9714;51.208;4.242;2023-06-10T04:55:37;14.75;;;7.95;;
19163;SDS011;9714;51.208;4.242;2023-06-10T04:58:04;15.93;;;8.00;;
19163;SDS011;9714;51.208;4.242;2023-06-10T05:00:31;19.27;;;8.70;;
19163;SDS011;9714;51.208;4.242;2023-06-10T05:03:00;15.02;;;8.10;;
19163;SDS011;9714;51.208;4.242;2023-06-10T05:05:27;18.95;;;7.93;;
19163;SDS011;9714;51.208;4.242;2023-06-10T05:07:54;15.13;;;8.23;;
19163;SDS011;9714;51.208;4.242;2023-06-10T05:10:21;21.13;;;9.13;;
19163;SDS011;9714;51.208;4.242;2023-06-10T05:12:49;18.70;;;8.18;;
19163;SDS011;9714;51.208;4.242;2023-06-10T05:15:16;19.58;;;8.52;;
19163;SDS011;9714;51.208;4.242;2023-06-10T05:17:43;19.42;;;8.98;;
19163;SDS011;9714;51.208;4.242;2023-06-10T05:20:13;20.27;;;8.15;;
19163;SDS011;9714;51.208;4.242;2023-06-10T05:22:40;17.15;;;8.32;;
19163;SDS011;9714;51.208;4.242;2023-06-10T05:25:07;17.90;;;8.18;;
19163;SDS011;9714;51.208;4.242;2023-06-10T05:27:34;15.98;;;8.65;;
19163;SDS011;9714;51.208;4.242;2023-06-10T05:30:02;15.10;;;8.68;;
19163;SDS011;9714;51.208;4.242;2023-06-10T05:32:30;16.20;;;8.43;;
19163;SDS011;9714;51.208;4.242;2023-06-10T05:34:58;14.27;;;8.35;;
19163;SDS011;9714;51.208;4.242;2023-06-10T05:37:28;19.95;;;8.60;;
19163;SDS011;9714;51.208;4.242;2023-06-10T05:39:58;16.48;;;8.57;;
19163;SDS011;9714;51.208;4.242;2023-06-10T05:42:26;14.32;;;8.13;;
19163;SDS011;9714;51.208;4.242;2023-06-10T05:44:53;15.75;;;8.07;;
19163;SDS011;9714;51.208;4.242;2023-06-10T05:47:20;15.18;;;7.93;;
19163;SDS011;9714;51.208;4.242;2023-06-10T05:49:47;19.77;;;8.52;;
19163;SDS011;9714;51.208;4.242;2023-06-10T05:52:17;16.02;;;8.65;;
19163;SDS011;9714;51.208;4.242;2023-06-10T05:54:45;14.85;;;8.57;;
19163;SDS011;9714;51.208;4.242;2023-06-10T05:57:13;18.63;;;8.32;;
19163;SDS011;9714;51.208;4.242;2023-06-10T05:59:40;15.68;;;8.00;;
19163;SDS011;9714;51.208;4.242;2023-06-10T06:02:08;17.85;;;7.68;;
19163;SDS011;9714;51.208;4.242;2023-06-10T06:04:35;14.68;;;7.97;;
19163;SDS011;9714;51.208;4.242;2023-06-10T06:07:03;19.67;;;9.52;;
19163;SDS011;9714;51.208;4.242;2023-06-10T06:09:31;16.42;;;8.57;;
19163;SDS011;9714;51.208;4.242;2023-06-10T06:11:59;14.30;;;7.97;;
19163;SDS011;9714;51.208;4.242;2023-06-10T06:14:26;16.75;;;8.38;;
19163;SDS011;9714;51.208;4.242;2023-06-10T06:16:56;14.50;;;8.13;;
19163;SDS011;9714;51.208;4.242;2023-06-10T06:19:23;14.32;;;8.60;;
19163;SDS011;9714;51.208;4.242;2023-06-10T06:21:50;18.52;;;8.38;;
19163;SDS011;9714;51.208;4.242;2023-06-10T06:24:17;15.82;;;8.65;;
19163;SDS011;9714;51.208;4.242;2023-06-10T06:26:45;19.77;;;8.70;;
19163;SDS011;9714;51.208;4.242;2023-06-10T06:29:13;15.48;;;8.00;;
19163;SDS011;9714;51.208;4.242;2023-06-10T06:31:40;16.30;;;8.48;;
19163;SDS011;9714;51.208;4.242;2023-06-10T06:34:07;17.40;;;7.47;;
19163;SDS011;9714;51.208;4.242;2023-06-10T06:36:34;16.13;;;7.97;;
19163;SDS011;9714;51.208;4.242;2023-06-10T06:39:01;15.13;;;8.10;;
19163;SDS011;9714;51.208;4.242;2023-06-10T06:41:29;19.17;;;7.70;;
19163;SDS011;9714;51.208;4.242;2023-06-10T06:43:57;17.80;;;7.63;;
19163;SDS011;9714;51.208;4.242;2023-06-10T06:46:25;17.38;;;8.38;;
19163;SDS011;9714;51.208;4.242;2023-06-10T06:48:53;15.20;;;7.18;;
19163;SDS011;9714;51.208;4.242;2023-06-10T06:51:20;15.93;;;8.18;;
19163;SDS011;9714;51.208;4.242;2023-06-10T06:53:47;14.55;;;7.50;;
19163;SDS011;9714;51.208;4.242;2023-06-10T06:56:16;13.80;;;7.68;;
19163;SDS011;9714;51.208;4.242;2023-06-10T06:58:43;13.65;;;7.45;;
19163;SDS011;9714;51.208;4.242;2023-06-10T07:01:10;13.43;;;7.60;;
19163;SDS011;9714;51.208;4.242;2023-06-10T07:03:38;16.08;;;7.97;;
19163;SDS011;9714;51.208;4.242;2023-06-10T07:06:05;18.65;;;7.03;;
19163;SDS011;9714;51.208;4.242;2023-06-10T07:08:32;15.85;;;7.10;;
19163;SDS011;9714;51.208;4.242;2023-06-10T07:10:59;16.60;;;8.50;;
19163;SDS011;9714;51.208;4.242;2023-06-10T07:13:26;16.90;;;8.00;;
19163;SDS011;9714;51.208;4.242;2023-06-10T07:15:53;13.27;;;7.40;;
19163;SDS011;9714;51.208;4.242;2023-06-10T07:18:20;13.93;;;7.63;;
19163;SDS011;9714;51.208;4.242;2023-06-10T07:20:51;14.45;;;7.18;;
19163;SDS011;9714;51.208;4.242;2023-06-10T07:23:18;12.90;;;7.32;;
19163;SDS011;9714;51.208;4.242;2023-06-10T07:25:45;14.82;;;6.82;;
19163;SDS011;9714;51.208;4.242;2023-06-10T07:28:12;15.05;;;6.88;;
19163;SDS011;9714;51.208;4.242;2023-06-10T07:30:39;14.15;;;7.50;;
19163;SDS011;9714;51.208;4.242;2023-06-10T07:33:07;15.68;;;7.05;;
19163;SDS011;9714;51.208;4.242;2023-06-10T07:35:35;19.52;;;7.78;;
19163;SDS011;9714;51.208;4.242;2023-06-10T07:38:04;15.80;;;7.25;;
19163;SDS011;9714;51.208;4.242;2023-06-10T07:40:31;15.15;;;6.90;;
19163;SDS011;9714;51.208;4.242;2023-06-10T07:42:57;17.85;;;7.75;;
19163;SDS011;9714;51.208;4.242;2023-06-10T07:45:24;15.95;;;7.57;;
19163;SDS011;9714;51.208;4.242;2023-06-10T07:47:52;12.60;;;6.85;;
19163;SDS011;9714;51.208;4.242;2023-06-10T07:50:20;11.68;;;6.78;;
19163;SDS011;9714;51.208;4.242;2023-06-10T07:52:48;13.43;;;6.20;;
19163;SDS011;9714;51.208;4.242;2023-06-10T07:55:18;23.23;;;6.95;;
19163;SDS011;9714;51.208;4.242;2023-06-10T07:57:45;12.52;;;6.43;;
19163;SDS011;9714;51.208;4.242;2023-06-10T08:00:12;16.95;;;6.88;;
19163;SDS011;9714;51.208;4.242;2023-06-10T08:02:40;14.95;;;6.65;;
19163;SDS011;9714;51.208;4.242;2023-06-10T08:05:07;16.60;;;6.47;;
19163;SDS011;9714;51.208;4.242;2023-06-10T08:07:36;16.17;;;7.32;;
19163;SDS011;9714;51.208;4.242;2023-06-10T08:10:03;12.82;;;6.50;;
19163;SDS011;9714;51.208;4.242;2023-06-10T08:12:32;16.73;;;6.43;;
19163;SDS011;9714;51.208;4.242;2023-06-10T08:15:00;12.07;;;6.45;;
19163;SDS011;9714;51.208;4.242;2023-06-10T08:17:29;12.02;;;6.35;;
19163;SDS011;9714;51.208;4.242;2023-06-10T08:19:57;16.58;;;7.10;;
19163;SDS011;9714;51.208;4.242;2023-06-10T08:22:25;17.90;;;6.38;;
19163;SDS011;9714;51.208;4.242;2023-06-10T08:24:52;13.90;;;6.75;;
19163;SDS011;9714;51.208;4.242;2023-06-10T08:27:19;15.45;;;6.70;;
19163;SDS011;9714;51.208;4.242;2023-06-10T08:29:48;13.60;;;6.53;;
19163;SDS011;9714;51.208;4.242;2023-06-10T08:32:15;16.60;;;6.00;;
19163;SDS011;9714;51.208;4.242;2023-06-10T08:34:42;13.25;;;6.13;;
19163;SDS011;9714;51.208;4.242;2023-06-10T08:37:10;13.45;;;5.65;;
19163;SDS011;9714;51.208;4.242;2023-06-10T08:39:37;14.77;;;6.28;;
19163;SDS011;9714;51.208;4.242;2023-06-10T08:42:06;14.32;;;5.90;;
19163;SDS011;9714;51.208;4.242;2023-06-10T08:44:41;12.40;;;5.80;;
19163;SDS011;9714;51.208;4.242;2023-06-10T08:47:13;18.27;;;6.13;;
19163;SDS011;9714;51.208;4.242;2023-06-10T08:49:43;17.08;;;6.45;;
19163;SDS011;9714;51.208;4.242;2023-06-10T08:52:13;12.20;;;5.72;;
19163;SDS011;9714;51.208;4.242;2023-06-10T08:54:42;10.63;;;5.68;;
19163;SDS011;9714;51.208;4.242;2023-06-10T08:57:12;15.75;;;5.35;;
19163;SDS011;9714;51.208;4.242;2023-06-10T08:59:40;14.05;;;5.13;;
19163;SDS011;9714;51.208;4.242;2023-06-10T09:02:08;12.65;;;5.30;;
19163;SDS011;9714;51.208;4.242;2023-06-10T09:04:37;12.23;;;5.50;;
19163;SDS011;9714;51.208;4.242;2023-06-10T09:07:05;11.02;;;5.45;;
19163;SDS011;9714;51.208;4.242;2023-06-10T09:09:32;11.95;;;5.18;;
19163;SDS011;9714;51.208;4.242;2023-06-10T09:12:02;10.25;;;5.30;;
19163;SDS011;9714;51.208;4.242;2023-06-10T09:14:30;11.32;;;5.38;;
19163;SDS011;9714;51.208;4.242;2023-06-10T09:16:57;10.98;;;5.22;;
19163;SDS011;9714;51.208;4.242;2023-06-10T09:19:25;10.57;;;5.07;;
19163;SDS011;9714;51.208;4.242;2023-06-10T09:21:54;11.43;;;4.72;;
19163;SDS011;9714;51.208;4.242;2023-06-10T09:24:22;9.65;;;5.00;;
19163;SDS011;9714;51.208;4.242;2023-06-10T09:26:50;10.32;;;5.00;;
19163;SDS011;9714;51.208;4.242;2023-06-10T09:29:27;22.50;;;4.95;;
19163;SDS011;9714;51.208;4.242;2023-06-10T09:31:55;11.18;;;5.30;;
19163;SDS011;9714;51.208;4.242;2023-06-10T09:34:24;11.48;;;4.97;;
19163;SDS011;9714;51.208;4.242;2023-06-10T09:36:54;11.45;;;5.22;;
19163;SDS011;9714;51.208;4.242;2023-06-10T09:39:22;9.73;;;4.43;;
19163;SDS011;9714;51.208;4.242;2023-06-10T09:41:50;8.10;;;4.45;;
19163;SDS011;9714;51.208;4.242;2023-06-10T09:44:18;14.88;;;5.40;;
19163;SDS011;9714;51.208;4.242;2023-06-10T09:46:46;13.90;;;5.20;;
19163;SDS011;9714;51.208;4.242;2023-06-10T09:49:15;10.98;;;5.60;;
19163;SDS011;9714;51.208;4.242;2023-06-10T09:51:50;13.98;;;6.18;;
19163;SDS011;9714;51.208;4.242;2023-06-10T09:54:19;12.68;;;5.25;;
19163;SDS011;9714;51.208;4.242;2023-06-10T09:56:48;11.90;;;5.35;;
19163;SDS011;9714;51.208;4.242;2023-06-10T09:59:16;11.25;;;5.55;;
19163;SDS011;9714;51.208;4.242;2023-06-10T10:01:54;12.38;;;5.68;;
19163;SDS011;9714;51.208;4.242;2023-06-10T10:04:23;15.18;;;5.65;;
19163;SDS011;9714;51.208;4.242;2023-06-10T10:06:50;22.60;;;5.68;;
19163;SDS011;9714;51.208;4.242;2023-06-10T10:09:19;18.38;;;5.60;;
19163;SDS011;9714;51.208;4.242;2023-06-10T10:11:47;13.25;;;5.35;;
19163;SDS011;9714;51.208;4.242;2023-06-10T10:14:15;14.27;;;5.50;;
19163;SDS011;9714;51.208;4.242;2023-06-10T10:16:44;14.05;;;5.75;;
19163;SDS011;9714;51.208;4.242;2023-06-10T10:19:15;11.65;;;5.88;;
19163;SDS011;9714;51.208;4.242;2023-06-10T10:21:48;18.35;;;5.45;;
19163;SDS011;9714;51.208;4.242;2023-06-10T10:24:21;16.85;;;6.13;;
19163;SDS011;9714;51.208;4.242;2023-06-10T10:26:51;15.40;;;5.78;;
19163;SDS011;9714;51.208;4.242;2023-06-10T10:29:24;11.13;;;5.60;;
19163;SDS011;9714;51.208;4.242;2023-06-10T10:31:59;11.63;;;5.50;;
19163;SDS011;9714;51.208;4.242;2023-06-10T10:34:29;13.95;;;4.97;;
19163;SDS011;9714;51.208;4.242;2023-06-10T10:37:03;11.93;;;5.72;;
19163;SDS011;9714;51.208;4.242;2023-06-10T10:39:31;13.60;;;5.30;;
19163;SDS011;9714;51.208;4.242;2023-06-10T10:42:01;16.58;;;5.50;;
19163;SDS011;9714;51.208;4.242;2023-06-10T10:44:30;11.95;;;5.28;;
19163;SDS011;9714;51.208;4.242;2023-06-10T10:46:58;10.18;;;4.68;;
19163;SDS011;9714;51.208;4.242;2023-06-10T10:49:29;12.13;;;4.85;;
19163;SDS011;9714;51.208;4.242;2023-06-10T10:51:57;11.02;;;5.00;;
19163;SDS011;9714;51.208;4.242;2023-06-10T10:54:28;11.65;;;5.30;;
19163;SDS011;9714;51.208;4.242;2023-06-10T10:57:14;11.90;;;5.68;;
19163;SDS011;9714;51.208;4.242;2023-06-10T10:59:44;11.05;;;5.47;;
19163;SDS011;9714;51.208;4.242;2023-06-10T11:02:16;12.43;;;5.63;;
19163;SDS011;9714;51.208;4.242;2023-06-10T11:04:47;15.50;;;5.63;;
19163;SDS011;9714;51.208;4.242;2023-06-10T11:07:16;14.60;;;6.10;;
19163;SDS011;9714;51.208;4.242;2023-06-10T11:12:52;12.23;;;6.70;;
19163;SDS011;9714;51.208;4.242;2023-06-10T11:15:19;15.57;;;6.30;;
19163;SDS011;9714;51.208;4.242;2023-06-10T11:18:07;10.60;;;5.45;;
19163;SDS011;9714;51.208;4.242;2023-06-10T11:20:43;11.52;;;4.93;;
19163;SDS011;9714;51.208;4.242;2023-06-10T11:23:30;10.90;;;5.00;;
19163;SDS011;9714;51.208;4.242;2023-06-10T11:26:14;12.38;;;5.57;;
19163;SDS011;9714;51.208;4.242;2023-06-10T11:29:01;12.18;;;5.32;;
19163;SDS011;9714;51.208;4.242;2023-06-10T11:31:30;10.45;;;5.18;;
19163;SDS011;9714;51.208;4.242;2023-06-10T11:33:59;13.98;;;5.22;;
19163;SDS011;9714;51.208;4.242;2023-06-10T11:36:28;20.25;;;5.30;;
19163;SDS011;9714;51.208;4.242;2023-06-10T11:38:56;11.98;;;5.15;;
19163;SDS011;9714;51.208;4.242;2023-06-10T11:41:24;11.05;;;5.03;;
19163;SDS011;9714;51.208;4.242;2023-06-10T11:43:54;12.40;;;5.78;;
19163;SDS011;9714;51.208;4.242;2023-06-10T11:46:22;12.73;;;5.40;;
19163;SDS011;9714;51.208;4.242;2023-06-10T11:48:52;11.20;;;5.50;;
19163;SDS011;9714;51.208;4.242;2023-06-10T11:51:20;10.60;;;5.35;;
19163;SDS011;9714;51.208;4.242;2023-06-10T11:53:47;9.95;;;4.53;;
19163;SDS011;9714;51.208;4.242;2023-06-10T11:56:19;10.82;;;5.15;;
19163;SDS011;9714;51.208;4.242;2023-06-10T11:58:51;12.43;;;5.28;;
19163;SDS011;9714;51.208;4.242;2023-06-10T12:01:21;15.02;;;5.93;;
19163;SDS011;9714;51.208;4.242;2023-06-10T12:03:56;11.70;;;5.20;;
19163;SDS011;9714;51.208;4.242;2023-06-10T12:06:24;14.95;;;5.03;;
19163;SDS011;9714;51.208;4.242;2023-06-10T12:08:51;15.75;;;5.63;;
19163;SDS011;9714;51.208;4.242;2023-06-10T12:11:20;15.20;;;5.30;;
19163;SDS011;9714;51.208;4.242;2023-06-10T12:13:48;12.05;;;5.85;;
19163;SDS011;9714;51.208;4.242;2023-06-10T12:16:17;10.10;;;4.95;;
19163;SDS011;9714;51.208;4.242;2023-06-10T12:18:45;17.52;;;6.03;;
19163;SDS011;9714;51.208;4.242;2023-06-10T12:21:18;10.95;;;4.85;;
19163;SDS011;9714;51.208;4.242;2023-06-10T12:24:02;12.70;;;5.97;;
19163;SDS011;9714;51.208;4.242;2023-06-10T12:26:38;12.50;;;5.93;;
19163;SDS011;9714;51.208;4.242;2023-06-10T12:29:20;11.88;;;5.88;;
19163;SDS011;9714;51.208;4.242;2023-06-10T12:31:57;13.48;;;5.47;;
19163;SDS011;9714;51.208;4.242;2023-06-10T12:34:29;13.88;;;5.97;;
19163;SDS011;9714;51.208;4.242;2023-06-10T12:36:58;10.77;;;5.35;;
19163;SDS011;9714;51.208;4.242;2023-06-10T12:39:25;12.88;;;5.45;;
19163;SDS011;9714;51.208;4.242;2023-06-10T12:41:53;12.75;;;5.50;;
19163;SDS011;9714;51.208;4.242;2023-06-10T12:47:08;10.65;;;5.65;;
19163;SDS011;9714;51.208;4.242;2023-06-10T12:49:37;12.70;;;5.70;;
19163;SDS011;9714;51.208;4.242;2023-06-10T12:52:05;10.18;;;5.55;;
19163;SDS011;9714;51.208;4.242;2023-06-10T12:54:32;11.82;;;5.18;;
19163;SDS011;9714;51.208;4.242;2023-06-10T12:57:00;14.93;;;5.65;;
19163;SDS011;9714;51.208;4.242;2023-06-10T12:59:28;9.50;;;5.05;;
19163;SDS011;9714;51.208;4.242;2023-06-10T13:01:56;11.57;;;5.28;;
19163;SDS011;9714;51.208;4.242;2023-06-10T13:04:25;11.45;;;5.78;;
19163;SDS011;9714;51.208;4.242;2023-06-10T13:06:52;11.32;;;5.47;;
19163;SDS011;9714;51.208;4.242;2023-06-10T13:09:19;18.23;;;5.40;;
19163;SDS011;9714;51.208;4.242;2023-06-10T13:11:46;18.67;;;5.75;;
19163;SDS011;9714;51.208;4.242;2023-06-10T13:14:13;15.55;;;5.50;;
19163;SDS011;9714;51.208;4.242;2023-06-10T13:16:40;11.05;;;5.45;;
19163;SDS011;9714;51.208;4.242;2023-06-10T13:19:08;12.98;;;5.55;;
19163;SDS011;9714;51.208;4.242;2023-06-10T13:21:37;11.90;;;5.53;;
19163;SDS011;9714;51.208;4.242;2023-06-10T13:24:05;18.77;;;6.28;;
19163;SDS011;9714;51.208;4.242;2023-06-10T13:26:33;12.32;;;5.25;;
19163;SDS011;9714;51.208;4.242;2023-06-10T13:29:00;13.23;;;5.55;;
19163;SDS011;9714;51.208;4.242;2023-06-10T13:31:28;13.82;;;5.00;;
19163;SDS011;9714;51.208;4.242;2023-06-10T13:33:55;17.88;;;5.20;;
19163;SDS011;9714;51.208;4.242;2023-06-10T13:36:22;12.60;;;5.00;;
19163;SDS011;9714;51.208;4.242;2023-06-10T13:38:51;18.45;;;5.07;;
19163;SDS011;9714;51.208;4.242;2023-06-10T13:41:18;9.93;;;4.68;;
19163;SDS011;9714;51.208;4.242;2023-06-10T13:43:45;16.48;;;5.40;;
19163;SDS011;9714;51.208;4.242;2023-06-10T13:46:13;11.18;;;5.00;;
19163;SDS011;9714;51.208;4.242;2023-06-10T13:48:40;11.50;;;5.45;;
19163;SDS011;9714;51.208;4.242;2023-06-10T13:51:07;11.15;;;4.82;;
19163;SDS011;9714;51.208;4.242;2023-06-10T13:53:38;9.93;;;5.15;;
19163;SDS011;9714;51.208;4.242;2023-06-10T13:56:07;12.80;;;5.63;;
19163;SDS011;9714;51.208;4.242;2023-06-10T13:58:34;12.30;;;5.78;;
19163;SDS011;9714;51.208;4.242;2023-06-10T14:01:04;11.60;;;5.55;;
19163;SDS011;9714;51.208;4.242;2023-06-10T14:03:32;12.05;;;5.25;;
19163;SDS011;9714;51.208;4.242;2023-06-10T14:05:59;10.07;;;5.35;;
19163;SDS011;9714;51.208;4.242;2023-06-10T14:08:27;11.48;;;5.03;;
19163;SDS011;9714;51.208;4.242;2023-06-10T14:10:55;11.95;;;5.00;;
19163;SDS011;9714;51.208;4.242;2023-06-10T14:13:23;12.15;;;4.95;;
19163;SDS011;9714;51.208;4.242;2023-06-10T14:15:51;9.43;;;5.13;;
19163;SDS011;9714;51.208;4.242;2023-06-10T14:18:18;9.68;;;5.07;;
19163;SDS011;9714;51.208;4.242;2023-06-10T14:20:45;11.20;;;5.20;;
19163;SDS011;9714;51.208;4.242;2023-06-10T14:23:12;12.70;;;5.50;;
19163;SDS011;9714;51.208;4.242;2023-06-10T14:25:40;11.48;;;4.90;;
19163;SDS011;9714;51.208;4.242;2023-06-10T14:28:07;11.43;;;5.72;;
19163;SDS011;9714;51.208;4.242;2023-06-10T14:30:36;11.82;;;5.60;;
19163;SDS011;9714;51.208;4.242;2023-06-10T14:33:03;12.50;;;5.13;;
19163;SDS011;9714;51.208;4.242;2023-06-10T14:35:31;14.75;;;5.57;;
19163;SDS011;9714;51.208;4.242;2023-06-10T14:37:59;10.07;;;5.10;;
19163;SDS011;9714;51.208;4.242;2023-06-10T14:40:26;9.02;;;4.90;;
19163;SDS011;9714;51.208;4.242;2023-06-10T14:42:54;10.93;;;5.03;;
19163;SDS011;9714;51.208;4.242;2023-06-10T14:45:21;11.75;;;5.35;;
19163;SDS011;9714;51.208;4.242;2023-06-10T14:47:51;15.07;;;5.88;;
19163;SDS011;9714;51.208;4.242;2023-06-10T14:50:18;15.30;;;4.95;;
19163;SDS011;9714;51.208;4.242;2023-06-10T14:52:46;11.25;;;5.78;;
19163;SDS011;9714;51.208;4.242;2023-06-10T14:55:13;13.15;;;5.05;;
19163;SDS011;9714;51.208;4.242;2023-06-10T14:57:41;10.88;;;5.63;;
19163;SDS011;9714;51.208;4.242;2023-06-10T15:00:08;11.13;;;4.85;;
19163;SDS011;9714;51.208;4.242;2023-06-10T15:02:36;10.30;;;5.18;;
19163;SDS011;9714;51.208;4.242;2023-06-10T15:05:05;10.07;;;5.15;;
19163;SDS011;9714;51.208;4.242;2023-06-10T15:07:33;19.90;;;5.80;;
19163;SDS011;9714;51.208;4.242;2023-06-10T15:10:00;10.57;;;5.57;;
19163;SDS011;9714;51.208;4.242;2023-06-10T15:12:27;10.75;;;5.13;;
19163;SDS011;9714;51.208;4.242;2023-06-10T15:14:54;12.18;;;5.53;;
19163;SDS011;9714;51.208;4.242;2023-06-10T15:17:21;9.35;;;4.75;;
19163;SDS011;9714;51.208;4.242;2023-06-10T15:19:48;9.77;;;4.93;;
19163;SDS011;9714;51.208;4.242;2023-06-10T15:22:16;9.63;;;5.03;;
19163;SDS011;9714;51.208;4.242;2023-06-10T15:24:43;16.45;;;5.43;;
19163;SDS011;9714;51.208;4.242;2023-06-10T15:27:10;11.80;;;5.07;;
19163;SDS011;9714;51.208;4.242;2023-06-10T15:29:37;13.05;;;5.40;;